• °C
  • Pobieranie danych...
wx


SEKCJA WYDRUKÓW, pokaż »

TAF EPRA 310200Z NIL=

TAF EPSY 302330Z 3100/3109 20005KT CAVOK=

TAF EPSY 310230Z 3103/3112 20005KT CAVOK
TEMPO 3110/3112 -SHRA SCT040TCU=

TAF EPZG 310200Z NIL=



Serwisy IMGW-PIB